Time;durP1;ratioP1;P1;durP2;ratioP2;P2;SDS_P1;SDS_P2;PMS_P1;PMS_P2;Temp;Humidity;BMP_temperature;BMP_pressure;BME280_temperature;BME280_humidity;BME280_pressure;Samples;Min_cycle;Max_cycle;Signal;HPM_P1;HPM_P2
2023/11/19 00:00:11;;;;;;;8.65;7.85;;;;;;;11.74;82.03;99033.25;4972877;28;20569;-76
2023/11/19 00:02:47;;;;;;;8.15;7.45;;;;;;;11.74;82.05;99022.69;4955982;28;20051;-77
2023/11/19 00:05:27;;;;;;;7.00;6.40;;;;;;;11.79;81.80;99028.47;4957164;28;20054;-75
2023/11/19 00:07:54;;;;;;;;;;;;;;;11.84;81.82;99028.09;4956235;28;20046;-74
2023/11/19 00:10:20;;;;;;;6.55;5.90;;;;;;;11.91;81.72;99028.50;4973046;28;19996;-74
2023/11/19 00:12:49;;;;;;;6.78;6.15;;;;;;;11.91;81.94;99020.56;4955890;28;20058;-74
2023/11/19 00:15:18;;;;;;;7.68;6.97;;;;;;;11.93;81.70;99016.03;4973200;28;20093;-75
2023/11/19 00:17:47;;;;;;;8.23;7.43;;;;;;;11.93;81.90;99016.88;4973079;28;20055;-78
2023/11/19 00:20:17;;;;;;;8.35;7.65;;;;;;;11.95;81.93;99007.06;4955857;28;20058;-74
2023/11/19 00:22:46;;;;;;;8.57;7.85;;;;;;;11.98;82.03;99004.19;4972416;28;20475;-76
2023/11/19 00:25:17;;;;;;;8.65;7.85;;;;;;;12.02;81.92;98999.53;4973158;28;20078;-75
2023/11/19 00:27:46;;;;;;;7.90;7.20;;;;;;;12.04;81.93;98994.13;4972800;28;20064;-77
2023/11/19 00:30:13;;;;;;;8.65;7.30;;;;;;;12.07;82.03;98993.94;4972978;28;20055;-74
2023/11/19 00:32:41;;;;;;;9.02;7.20;;;;;;;12.10;81.95;98994.53;4972610;28;20496;-74
2023/11/19 00:35:10;;;;;;;8.85;8.02;;;;;;;12.12;81.84;98989.16;4972872;28;20055;-75
2023/11/19 00:37:37;;;;;;;7.75;7.05;;;;;;;12.14;81.96;98984.59;4955551;28;20070;-74
2023/11/19 00:40:05;;;;;;;8.32;7.63;;;;;;;12.17;82.04;98978.22;4972960;28;20491;-75
2023/11/19 00:42:32;;;;;;;7.75;7.05;;;;;;;12.18;82.03;98983.41;4972488;28;20502;-73
2023/11/19 00:44:59;;;;;;;8.07;7.38;;;;;;;12.21;82.05;98967.34;4955439;28;20051;-74
2023/11/19 00:47:25;;;;;;;8.80;8.00;;;;;;;12.22;82.02;98969.03;4955763;28;20046;-76
2023/11/19 00:49:52;;;;;;;9.35;8.45;;;;;;;12.25;81.81;98952.09;4972598;28;20047;-75
2023/11/19 00:52:19;;;;;;;9.65;8.75;;;;;;;12.27;82.28;98962.53;4973716;28;20452;-75
2023/11/19 00:54:46;;;;;;;9.93;8.73;;;;;;;12.30;82.34;98957.03;4977024;28;20062;-77
2023/11/19 00:57:12;;;;;;;9.13;8.23;;;;;;;12.31;82.21;98964.84;4976509;28;20042;-75
2023/11/19 00:59:42;;;;;;;9.93;8.93;;;;;;;12.32;82.29;98966.53;4959389;28;20058;-75
2023/11/19 01:02:08;;;;;;;9.38;8.48;;;;;;;12.36;82.36;98967.97;4959101;28;20047;-76
2023/11/19 01:04:35;;;;;;;9.60;8.70;;;;;;;12.38;82.72;98955.47;4976264;28;20142;-75
2023/11/19 01:07:06;;;;;;;9.80;8.90;;;;;;;12.43;82.36;98957.78;4976577;28;20046;-74
2023/11/19 01:09:34;;;;;;;9.85;8.85;;;;;;;12.47;82.56;98942.53;4959189;28;20055;-75
2023/11/19 01:12:02;;;;;;;9.82;8.90;;;;;;;12.48;82.80;98947.69;4976184;28;20061;-76
2023/11/19 01:14:29;;;;;;;11.38;10.18;;;;;;;12.52;82.73;98932.44;4976227;28;20047;-75
2023/11/19 01:16:56;;;;;;;10.30;9.30;;;;;;;12.55;82.79;98940.13;4976096;28;20105;-75
2023/11/19 01:19:24;;;;;;;10.98;9.90;;;;;;;12.59;82.73;98946.00;4976423;28;20154;-77
2023/11/19 01:21:51;;;;;;;12.15;10.95;;;;;;;12.62;83.03;98940.47;4976200;28;20106;-75
2023/11/19 01:24:17;;;;;;;11.30;10.20;;;;;;;12.65;82.89;98940.25;4976012;28;20054;-76
2023/11/19 01:26:45;;;;;;;11.80;10.60;;;;;;;12.67;83.03;98927.75;4975959;28;20047;-74
2023/11/19 01:29:15;;;;;;;12.52;11.23;;;;;;;12.71;83.00;98923.91;4975700;28;20176;-74
2023/11/19 01:31:42;;;;;;;12.07;10.88;;;;;;;12.74;82.76;98917.53;4975611;28;20055;-78
2023/11/19 01:34:11;;;;;;;12.45;11.15;;;;;;;12.76;83.04;98916.44;4976013;28;20082;-74
2023/11/19 01:36:39;;;;;;;14.35;12.95;;;;;;;12.80;83.04;98911.78;4975900;28;20423;-76
2023/11/19 01:39:06;;;;;;;16.55;13.32;;;;;;;12.84;83.15;98926.41;4975642;28;20055;-75
2023/11/19 01:41:36;;;;;;;14.57;13.07;;;;;;;12.86;82.93;98916.56;4975633;28;20154;-74
2023/11/19 01:44:03;;;;;;;14.80;12.90;;;;;;;12.91;82.51;98913.56;4975517;28;20054;-77
2023/11/19 01:46:32;;;;;;;15.85;14.15;;;;;;;12.93;82.73;98900.22;4975857;28;20097;-73
2023/11/19 01:49:00;;;;;;;16.15;14.45;;;;;;;12.97;82.79;98914.88;4975665;28;20053;-76
2023/11/19 01:51:27;;;;;;;15.30;13.77;;;;;;;12.98;82.82;98914.72;4975552;28;20054;-73
2023/11/19 01:53:55;;;;;;;16.20;14.50;;;;;;;13.01;82.78;98926.88;4975381;28;20111;-77
2023/11/19 01:56:24;;;;;;;17.83;15.60;;;;;;;13.03;82.55;98920.50;4975336;28;20097;-74
2023/11/19 01:58:53;;;;;;;17.73;15.60;;;;;;;13.05;82.79;98907.16;4975112;28;20059;-76
2023/11/19 02:01:20;;;;;;;16.98;15.27;;;;;;;13.08;82.80;98882.31;4975561;28;20106;-76
2023/11/19 02:03:47;;;;;;;18.20;16.33;;;;;;;13.10;82.68;98880.34;4974014;28;20054;-75
2023/11/19 02:06:15;;;;;;;19.90;16.20;;;;;;;13.12;82.50;98900.41;4975038;28;20050;-75
2023/11/19 02:08:43;;;;;;;19.15;16.48;;;;;;;13.13;82.76;98896.78;4974843;28;20504;-77
2023/11/19 02:11:11;;;;;;;17.25;15.43;;;;;;;13.16;82.97;98898.38;4974919;28;20050;-77
2023/11/19 02:13:39;;;;;;;17.98;15.85;;;;;;;13.17;83.05;98881.53;4957637;28;20055;-75
2023/11/19 02:16:06;;;;;;;18.65;16.65;;;;;;;13.20;83.13;98891.03;4975269;28;20050;-75
2023/11/19 02:18:33;;;;;;;18.35;16.23;;;;;;;13.23;83.20;98874.91;4975098;28;20055;-74
2023/11/19 02:21:00;;;;;;;19.08;15.57;;;;;;;13.26;83.07;98872.00;4975007;28;20055;-75
2023/11/19 02:23:28;;;;;;;18.85;16.63;;;;;;;13.28;83.12;98864.81;4974557;28;20137;-76
2023/11/19 02:26:16;;;;;;;19.08;16.58;;;;;;;13.30;83.19;98870.78;4974858;28;20053;-76
2023/11/19 02:28:43;;;;;;;18.40;16.00;;;;;;;13.35;83.13;98873.88;4974692;28;20439;-76
2023/11/19 02:31:11;;;;;;;19.30;15.60;;;;;;;13.38;83.12;98867.53;4974763;28;20122;-74
2023/11/19 02:33:38;;;;;;;18.98;15.98;;;;;;;13.41;83.33;98864.59;4974502;28;20054;-74
2023/11/19 02:36:07;;;;;;;19.77;16.83;;;;;;;13.45;83.18;98865.19;4974478;28;20086;-77
2023/11/19 02:38:35;;;;;;;23.45;15.98;;;;;;;13.47;83.15;98868.53;4974351;28;20051;-76
2023/11/19 02:41:06;;;;;;;18.10;16.05;;;;;;;13.48;83.19;98857.03;4974420;28;20062;-75
2023/11/19 02:43:34;;;;;;;16.75;14.27;;;;;;;13.53;83.40;98862.78;4973988;28;20133;-76
2023/11/19 02:46:02;;;;;;;22.40;16.08;;;;;;;13.55;83.24;98863.50;4973982;28;20101;-75
2023/11/19 02:48:43;;;;;;;19.83;15.73;;;;;;;13.58;83.14;98857.94;4958596;28;20082;-75
2023/11/19 02:51:09;;;;;;;21.30;15.15;;;;;;;13.61;83.43;98860.31;4974270;28;20090;-76
2023/11/19 02:53:37;;;;;;;20.92;14.35;;;;;;;13.64;83.39;98853.97;4973940;28;20051;-75
2023/11/19 02:56:25;;;;;;;19.67;13.40;;;;;;;13.67;83.53;98861.59;4974133;28;20074;-75
2023/11/19 02:58:52;;;;;;;20.25;14.07;;;;;;;13.71;83.37;98852.44;4973819;28;20102;-74
2023/11/19 03:01:29;;;;;;;21.70;14.70;;;;;;;13.72;83.19;98837.44;4973546;28;20058;-76
2023/11/19 03:03:58;;;;;;;20.48;13.02;;;;;;;13.78;83.08;98847.47;4973626;28;20051;-74
2023/11/19 03:06:25;;;;;;;19.27;13.55;;;;;;;13.79;83.11;98850.00;4973820;28;20054;-75
2023/11/19 03:08:52;;;;;;;23.75;13.25;;;;;;;13.83;83.28;98841.81;4973537;28;20141;-75
2023/11/19 03:11:18;;;;;;;22.10;12.63;;;;;;;13.85;83.40;98842.50;4973466;28;20086;-75
2023/11/19 03:13:46;;;;;;;17.85;11.90;;;;;;;13.87;83.21;98836.09;4956088;28;20487;-75
2023/11/19 03:16:13;;;;;;;19.27;11.40;;;;;;;13.89;83.05;98834.19;4973389;28;20094;-75
2023/11/19 03:18:41;;;;;;;16.30;11.45;;;;;;;13.91;82.93;98832.22;4973317;28;20061;-75
2023/11/19 03:21:08;;;;;;;16.70;11.35;;;;;;;13.94;82.97;98841.69;4973448;28;20094;-75
2023/11/19 03:23:35;;;;;;;17.48;11.82;;;;;;;13.96;82.88;98847.72;4973333;28;20079;-76
2023/11/19 03:26:05;;;;;;;20.23;10.48;;;;;;;13.98;82.87;98850.22;4973278;28;20051;-75
2023/11/19 03:28:32;;;;;;;13.68;9.93;;;;;;;14.00;82.66;98851.78;4973334;28;20576;-75
2023/11/19 03:30:59;;;;;;;16.42;10.05;;;;;;;14.01;82.76;98852.59;4973370;28;20063;-75
2023/11/19 03:33:27;;;;;;;15.10;9.50;;;;;;;14.03;82.62;98859.47;4973042;28;20138;-75
2023/11/19 03:35:56;;;;;;;17.20;9.40;;;;;;;14.03;82.50;98842.72;4973187;28;20059;-76
2023/11/19 03:38:24;;;;;;;20.08;9.38;;;;;;;14.06;82.58;98831.88;4972928;28;20046;-76
2023/11/19 03:40:51;;;;;;;13.25;8.50;;;;;;;14.06;82.49;98835.34;4972993;28;20063;-77
2023/11/19 03:43:19;;;;;;;20.98;8.93;;;;;;;14.09;82.50;98839.53;4972834;28;20097;-76
2023/11/19 03:45:46;;;;;;;17.27;8.18;;;;;;;14.09;82.46;98839.53;4972679;28;20055;-76
2023/11/19 03:48:15;;;;;;;15.00;8.45;;;;;;;14.11;82.60;98837.63;4972804;28;20050;-75
2023/11/19 03:50:43;;;;;;;13.77;7.30;;;;;;;14.12;82.55;98839.28;4955750;28;20084;-76
2023/11/19 03:53:09;;;;;;;17.42;8.07;;;;;;;14.14;82.57;98829.41;4972527;28;20106;-76
2023/11/19 03:55:36;;;;;;;20.88;7.97;;;;;;;14.17;82.48;98825.66;4973019;28;20150;-77
2023/11/19 03:58:02;;;;;;;22.00;7.80;;;;;;;14.17;82.70;98839.72;4955396;28;20058;-75
2023/11/19 04:00:29;;;;;;;24.33;8.57;;;;;;;14.20;82.76;98844.75;4972889;28;20063;-75
2023/11/19 04:02:56;;;;;;;18.98;8.07;;;;;;;14.20;82.42;98834.16;4972760;28;20530;-75
2023/11/19 04:05:22;;;;;;;17.15;7.07;;;;;;;14.23;82.40;98848.09;4955572;28;20054;-76
2023/11/19 04:07:49;;;;;;;13.38;6.93;;;;;;;14.23;82.21;98829.56;4972459;28;20499;-77
2023/11/19 04:10:16;;;;;;;24.52;7.22;;;;;;;14.22;82.35;98838.47;4972750;28;20043;-75
2023/11/19 04:12:43;;;;;;;24.25;7.90;;;;;;;14.22;82.17;98827.88;4972722;28;20050;-76
2023/11/19 04:15:11;;;;;;;18.73;6.90;;;;;;;14.21;81.97;98827.06;4972442;28;20499;-76
2023/11/19 04:17:38;;;;;;;27.13;7.78;;;;;;;14.22;82.25;98828.75;4955167;28;20503;-75
2023/11/19 04:20:06;;;;;;;21.73;7.47;;;;;;;14.22;82.18;98827.88;4955235;28;20059;-75
2023/11/19 04:22:32;;;;;;;19.30;6.90;;;;;;;14.22;81.97;98835.84;2943382;23;20053;-76
2023/11/19 04:24:59;;;;;;;17.20;6.97;;;;;;;14.23;82.03;98830.41;5011480;28;20081;-74
2023/11/19 04:27:26;;;;;;;21.63;5.97;;;;;;;14.22;81.85;98822.59;5010945;28;20080;-75
2023/11/19 04:29:52;;;;;;;21.70;6.00;;;;;;;14.22;82.20;98828.75;5011617;28;20081;-78
2023/11/19 04:32:20;;;;;;;25.15;6.95;;;;;;;14.23;81.64;98829.56;4994215;28;20483;-75
2023/11/19 04:34:47;;;;;;;18.10;5.75;;;;;;;14.21;81.73;98824.44;5011339;28;20041;-74
2023/11/19 04:37:14;;;;;;;24.50;5.13;;;;;;;14.22;81.54;98825.25;4994007;28;20057;-77
2023/11/19 04:39:40;;;;;;;19.58;5.53;;;;;;;14.21;81.45;98821.78;5011393;28;20483;-75
2023/11/19 04:42:07;;;;;;;22.65;5.38;;;;;;;14.19;81.43;98813.97;5011592;28;20046;-76
2023/11/19 04:44:34;;;;;;;22.92;5.55;;;;;;;14.18;81.20;98809.66;5011518;28;20054;-76
2023/11/19 04:47:00;;;;;;;21.38;5.57;;;;;;;14.16;81.29;98808.94;5011398;28;20471;-75
2023/11/19 04:49:27;;;;;;;28.33;5.88;;;;;;;14.16;81.17;98814.22;5011168;28;20050;-75
2023/11/19 04:51:54;;;;;;;22.35;5.32;;;;;;;14.16;81.16;98831.91;5011140;28;20505;-76
2023/11/19 04:54:24;;;;;;;24.02;6.22;;;;;;;14.13;80.97;98835.66;4993940;28;20398;-76
2023/11/19 04:56:51;;;;;;;19.17;5.03;;;;;;;14.12;80.89;98826.06;5011349;28;20462;-75
2023/11/19 04:59:17;;;;;;;18.10;5.47;;;;;;;14.10;80.83;98825.34;4993916;28;20081;-74
2023/11/19 05:01:48;;;;;;;21.45;5.05;;;;;;;14.05;80.22;98828.38;5011360;28;20046;-76
2023/11/19 05:04:14;;;;;;;20.38;5.25;;;;;;;14.05;80.68;98840.78;5011167;28;20049;-74
2023/11/19 05:06:41;;;;;;;24.38;5.40;;;;;;;14.03;80.56;98837.44;5011388;28;20053;-76
2023/11/19 05:09:09;;;;;;;19.90;4.60;;;;;;;14.02;80.71;98841.88;4993700;28;20042;-75
2023/11/19 05:11:35;;;;;;;25.17;5.35;;;;;;;14.01;80.85;98836.72;5011189;28;20454;-76
2023/11/19 05:14:05;;;;;;;29.38;5.55;;;;;;;13.98;80.85;98837.00;5011059;28;20096;-75
2023/11/19 05:16:32;;;;;;;22.60;6.25;;;;;;;13.98;81.11;98842.28;5011580;28;20046;-75
2023/11/19 05:18:59;;;;;;;33.13;6.57;;;;;;;13.99;80.99;98836.03;5010968;28;20092;-75
2023/11/19 05:21:26;;;;;;;28.77;6.28;;;;;;;13.98;80.69;98829.88;5011172;28;20060;-77
2023/11/19 05:23:52;;;;;;;26.73;5.68;;;;;;;13.97;80.45;98824.75;5010876;28;20045;-76
2023/11/19 05:26:21;;;;;;;21.40;4.80;;;;;;;13.96;80.17;98834.47;4993578;28;20057;-75
2023/11/19 05:28:48;;;;;;;31.05;6.35;;;;;;;13.93;80.04;98824.16;4993797;28;20081;-77
2023/11/19 05:31:16;;;;;;;31.30;5.72;;;;;;;13.90;79.89;98837.63;5010961;28;20069;-75
2023/11/19 05:33:43;;;;;;;28.20;5.97;;;;;;;13.88;80.11;98831.66;5011380;28;20100;-75
2023/11/19 05:36:12;;;;;;;28.15;5.93;;;;;;;13.85;80.06;98830.13;5010911;28;20057;-76
2023/11/19 05:38:39;;;;;;;26.23;5.05;;;;;;;13.86;80.09;98828.31;5012437;28;20046;-75
2023/11/19 05:41:06;;;;;;;28.67;5.90;;;;;;;13.83;80.30;98826.75;5014592;28;20086;-75
2023/11/19 05:43:33;;;;;;;26.40;5.45;;;;;;;13.82;80.16;98822.44;5014203;28;20513;-75
2023/11/19 05:46:01;;;;;;;29.75;5.60;;;;;;;13.81;80.13;98832.19;4997225;28;20045;-74
2023/11/19 05:48:28;;;;;;;31.33;7.00;;;;;;;13.80;80.06;98834.97;5014392;28;20046;-77
2023/11/19 05:50:55;;;;;;;33.83;6.85;;;;;;;13.79;79.88;98841.19;4997149;28;20133;-74
2023/11/19 05:53:22;;;;;;;30.83;6.22;;;;;;;13.76;79.99;98844.13;5014065;28;20077;-76
2023/11/19 05:55:54;;;;;;;27.92;5.75;;;;;;;13.75;80.00;98845.94;5014222;28;20046;-76
2023/11/19 05:58:28;;;;;;;28.48;6.00;;;;;;;13.72;79.38;98859.41;5102505;23;20053;-77
2023/11/19 06:03:29;;;;;;;27.05;5.97;;;;;;;13.70;79.42;98850.78;5151172;23;20506;-75
2023/11/19 06:05:56;;;;;;;38.78;6.88;;;;;;;13.68;79.63;98847.41;5013404;28;20053;-76
2023/11/19 06:08:22;;;;;;;38.35;6.25;;;;;;;13.66;79.48;98850.22;5013158;28;20123;-75
2023/11/19 06:10:51;;;;;;;38.58;7.22;;;;;;;13.65;79.49;98863.56;5013155;28;20084;-74
2023/11/19 06:13:17;;;;;;;37.17;6.40;;;;;;;13.63;79.24;98861.03;5013194;28;20046;-74
2023/11/19 06:15:44;;;;;;;35.22;6.90;;;;;;;13.61;79.36;98852.38;5013125;28;20521;-77
2023/11/19 06:18:12;;;;;;;34.05;6.93;;;;;;;13.60;79.22;98863.13;5013171;28;20131;-75
2023/11/19 06:20:39;;;;;;;30.27;5.35;;;;;;;13.59;79.18;98864.91;5013018;28;20108;-76
2023/11/19 06:23:12;;;;;;;31.58;6.80;;;;;;;13.58;78.91;98863.25;5012584;28;20057;-74
2023/11/19 06:25:39;;;;;;;32.45;6.75;;;;;;;13.58;78.79;98859.75;5013246;28;20053;-76
2023/11/19 06:28:06;;;;;;;33.85;6.15;;;;;;;13.57;78.87;98866.81;4995889;28;20132;-76
2023/11/19 06:30:32;;;;;;;35.20;6.03;;;;;;;13.55;78.90;98879.34;5012869;28;20046;-75
2023/11/19 06:33:00;;;;;;;37.83;6.10;;;;;;;13.54;78.48;98869.75;4994816;28;20049;-76
2023/11/19 06:35:35;;;;;;;38.53;6.13;;;;;;;13.51;78.44;98873.50;5012357;28;20064;-75
2023/11/19 06:38:05;;;;;;;37.90;6.80;;;;;;;13.51;78.48;98870.00;5005117;28;20061;-75
2023/11/19 06:40:35;;;;;;;43.65;6.57;;;;;;;13.49;78.26;98871.94;5012011;28;20046;-75
2023/11/19 06:43:03;;;;;;;35.03;6.28;;;;;;;13.47;78.20;98879.13;5011935;28;20112;-76
2023/11/19 06:45:30;;;;;;;36.75;6.95;;;;;;;13.45;78.32;98892.47;5012055;28;20483;-76
2023/11/19 06:48:00;;;;;;;40.50;6.65;;;;;;;13.41;78.26;98873.38;5012055;28;20053;-75
2023/11/19 06:50:27;;;;;;;33.78;6.05;;;;;;;13.41;78.26;98883.97;5011147;28;20046;-76
2023/11/19 06:52:53;;;;;;;38.08;6.90;;;;;;;13.41;78.54;98883.09;5011958;28;20045;-75
2023/11/19 06:55:20;;;;;;;27.52;5.60;;;;;;;13.41;78.36;98880.47;5012132;28;20073;-75
2023/11/19 06:57:50;;;;;;;37.85;7.18;;;;;;;13.41;78.34;98883.09;5012261;28;20141;-77
2023/11/19 07:00:20;;;;;;;34.80;5.63;;;;;;;13.42;78.63;98879.53;5012324;28;20061;-75
2023/11/19 07:02:50;;;;;;;42.63;6.47;;;;;;;13.40;78.26;98884.94;4971828;28;1162150;-76
2023/11/19 07:05:23;;;;;;;34.83;6.78;;;;;;;13.37;77.03;98885.19;5013298;28;20050;-75
2023/11/19 07:07:51;;;;;;;44.20;7.18;;;;;;;13.40;78.39;98890.22;5013380;28;20057;-75
2023/11/19 07:10:29;;;;;;;44.42;7.60;;;;;;;13.37;76.98;98893.09;5013072;28;20053;-76
2023/11/19 07:12:57;;;;;;;43.28;6.50;;;;;;;13.38;78.04;98881.56;5012963;28;20054;-77
2023/11/19 07:15:26;;;;;;;39.72;6.35;;;;;;;13.40;78.41;98887.56;5013019;28;20495;-75
2023/11/19 07:17:54;;;;;;;41.20;5.65;;;;;;;13.41;78.52;98894.53;5012922;28;20061;-77
2023/11/19 07:20:27;;;;;;;33.20;6.32;;;;;;;13.39;77.80;98888.50;4995997;28;20100;-75
2023/11/19 07:22:57;;;;;;;45.15;7.03;;;;;;;13.40;77.66;98887.56;5012367;28;20414;-75
2023/11/19 07:25:24;;;;;;;36.55;7.60;;;;;;;13.41;78.16;98883.97;5012808;28;20108;-76
2023/11/19 07:27:54;;;;;;;38.05;6.28;;;;;;;13.41;77.88;98894.53;5012463;28;20107;-75
2023/11/19 07:30:21;;;;;;;38.75;6.28;;;;;;;13.41;78.11;98899.81;5012629;28;20105;-79
2023/11/19 07:35:26;;;;;;;35.22;7.38;;;;;;;13.43;77.95;98900.50;5005622;23;20069;-75
2023/11/19 07:37:52;;;;;;;33.60;6.80;;;;;;;13.45;78.04;98913.59;4995339;28;20053;-74
2023/11/19 07:40:19;;;;;;;30.17;5.80;;;;;;;13.46;78.14;98909.16;5012819;28;20058;-76
2023/11/19 07:42:46;;;;;;;38.30;6.75;;;;;;;13.46;78.06;98911.81;4995346;28;20459;-74
2023/11/19 07:45:13;;;;;;;42.25;6.82;;;;;;;13.47;78.23;98916.97;5012698;28;20085;-75
2023/11/19 07:47:39;;;;;;;32.78;6.97;;;;;;;13.47;77.85;98914.34;5012682;28;20061;-75
2023/11/19 07:50:07;;;;;;;39.95;6.28;;;;;;;13.47;77.86;98922.28;5012428;28;20050;-74
2023/11/19 07:52:33;;;;;;;37.95;6.60;;;;;;;13.49;77.63;98924.81;4994997;28;20509;-74
2023/11/19 07:55:01;;;;;;;37.05;7.10;;;;;;;13.48;77.60;98929.25;5012790;28;20061;-77
2023/11/19 07:57:30;;;;;;;36.95;6.28;;;;;;;13.50;77.82;98934.41;5012589;28;20053;-74
2023/11/19 07:59:57;;;;;;;41.28;7.68;;;;;;;13.49;77.49;98948.63;5012559;28;20061;-74
2023/11/19 08:02:24;;;;;;;30.15;5.97;;;;;;;13.51;77.62;98941.38;5012284;28;20104;-78
2023/11/19 08:04:51;;;;;;;27.42;6.43;;;;;;;13.50;77.53;98948.47;5012254;28;20061;-76
2023/11/19 08:07:21;;;;;;;42.53;7.00;;;;;;;13.50;77.57;98948.47;5012222;28;20540;-80
2023/11/19 08:09:48;;;;;;;39.20;6.38;;;;;;;13.53;77.52;98944.75;5011807;28;20046;-74
2023/11/19 08:12:17;;;;;;;37.97;7.07;;;;;;;13.53;77.50;98948.22;4994611;28;20054;-74
2023/11/19 08:14:44;;;;;;;38.03;5.85;;;;;;;13.54;77.33;98951.72;5012240;28;20108;-75
2023/11/19 08:17:10;;;;;;;40.20;6.50;;;;;;;13.54;77.33;98954.34;4994602;28;20517;-73
2023/11/19 08:19:37;;;;;;;37.38;6.15;;;;;;;13.55;77.34;98959.53;5012028;28;20414;-75
2023/11/19 08:22:03;;;;;;;38.67;6.47;;;;;;;13.56;77.34;98952.41;5011840;28;20058;-76
2023/11/19 08:24:30;;;;;;;38.45;6.47;;;;;;;13.56;76.93;98970.91;4994552;28;20045;-76
2023/11/19 08:26:56;;;;;;;46.33;7.55;;;;;;;13.57;76.99;98969.94;5012293;28;20058;-76
2023/11/19 08:29:27;;;;;;;41.80;5.82;;;;;;;13.58;77.09;98957.56;4995028;28;20100;-76
2023/11/19 08:31:54;;;;;;;36.15;5.45;;;;;;;13.56;76.72;98963.00;5011791;28;20149;-74
2023/11/19 08:34:20;;;;;;;38.60;6.22;;;;;;;13.55;76.91;98954.22;5012066;28;20109;-75
2023/11/19 08:36:50;;;;;;;33.75;6.35;;;;;;;13.54;76.37;98955.19;5011729;28;20124;-77
2023/11/19 08:39:16;;;;;;;41.17;6.35;;;;;;;13.57;77.11;98969.13;4994458;28;20197;-74
2023/11/19 08:41:43;;;;;;;37.90;6.50;;;;;;;13.56;77.12;98963.00;5011808;28;20053;-74
2023/11/19 08:44:12;;;;;;;34.83;5.72;;;;;;;13.55;76.49;98963.97;5011581;28;20068;-74
2023/11/19 08:46:39;;;;;;;43.65;7.68;;;;;;;13.58;76.98;98957.56;4994132;28;20046;-75
2023/11/19 08:49:08;;;;;;;35.72;6.25;;;;;;;13.58;76.83;98957.56;4993998;28;20049;-75
2023/11/19 08:51:34;;;;;;;39.20;8.32;;;;;;;13.58;76.51;98969.00;5011767;28;20054;-76
2023/11/19 08:54:01;;;;;;;33.85;5.50;;;;;;;13.58;76.50;98971.66;5011694;28;20046;-75
2023/11/19 09:00:11;;;;;;;42.67;7.18;;;;;;;13.57;76.26;98974.41;5009933;28;20107;-75
2023/11/19 09:02:37;;;;;;;39.40;6.13;;;;;;;13.54;76.34;98978.97;5348723;23;20014;-75
2023/11/19 09:05:05;;;;;;;29.95;5.82;;;;;;;13.51;76.30;98979.25;4972599;23;20533;-74
2023/11/19 09:07:32;;;;;;;36.20;6.40;;;;;;;13.47;75.59;98974.28;4991548;28;20046;-76
2023/11/19 09:09:58;;;;;;;29.60;5.85;;;;;;;13.42;76.14;98986.06;5010931;28;20050;-76
2023/11/19 09:12:25;;;;;;;29.45;5.75;;;;;;;13.37;76.40;98988.25;5087289;23;21040;-75
2023/11/19 09:15:10;;;;;;;40.08;6.43;;;;;;;13.31;75.72;98986.13;4995193;23;20054;-76
2023/11/19 09:17:37;;;;;;;44.83;7.57;;;;;;;13.31;76.61;98983.50;4993814;28;20105;-76
2023/11/19 09:20:05;;;;;;;36.08;6.55;;;;;;;13.28;76.89;98983.72;5014805;28;20046;-78
2023/11/19 09:22:32;;;;;;;43.78;7.45;;;;;;;13.25;77.22;98976.03;5014403;28;20506;-75
2023/11/19 09:25:00;;;;;;;46.35;8.07;;;;;;;13.24;77.22;98975.19;5015019;28;20065;-77
2023/11/19 09:27:27;;;;;;;37.45;7.05;;;;;;;13.24;77.24;98972.53;5014599;28;20510;-77
2023/11/19 09:29:57;;;;;;;51.55;7.97;;;;;;;13.25;77.43;98973.41;5014917;28;20058;-75
2023/11/19 09:32:25;;;;;;;37.20;7.43;;;;;;;13.27;77.55;98988.16;5014100;28;20053;-78
2023/11/19 09:34:55;;;;;;;33.63;6.55;;;;;;;13.29;77.37;98978.31;5014129;28;20487;-76
2023/11/19 09:37:24;;;;;;;49.40;7.38;;;;;;;13.32;77.61;98968.44;5014599;28;20050;-77
2023/11/19 09:39:53;;;;;;;46.00;7.90;;;;;;;13.35;77.41;98976.97;5015045;28;20463;-77
2023/11/19 09:42:30;;;;;;;39.67;7.10;;;;;;;13.36;76.96;98978.66;4996838;28;20049;-76
2023/11/19 09:45:13;;;;;;;36.22;6.50;;;;;;;13.40;76.12;98966.88;4998868;28;20487;-77
2023/11/19 09:47:47;;;;;;;40.80;7.25;;;;;;;13.46;76.64;98985.84;5015087;28;20085;-77
2023/11/19 09:50:20;;;;;;;40.72;6.32;;;;;;;13.50;76.04;98982.84;4999232;28;20077;-77
2023/11/19 09:53:07;;;;;;;42.17;7.82;;;;;;;13.52;75.48;98980.91;5014338;28;20100;-76
2023/11/19 09:55:44;;;;;;;40.10;7.25;;;;;;;13.59;77.01;98981.25;5014349;28;20053;-76
2023/11/19 09:58:18;;;;;;;38.80;6.20;;;;;;;13.59;75.29;98994.47;5017923;28;20065;-77
2023/11/19 10:00:49;;;;;;;39.95;7.10;;;;;;;13.63;76.64;98972.09;5015828;28;20076;-77
2023/11/19 10:03:40;;;;;;;39.65;7.07;;;;;;;13.66;76.63;98973.66;5014865;28;20049;-77
2023/11/19 10:06:22;;;;;;;45.03;7.07;;;;;;;13.67;76.18;98981.47;5017124;28;20050;-77
2023/11/19 10:09:06;;;;;;;37.47;8.00;;;;;;;13.66;75.08;98979.78;5015725;28;20415;-75
2023/11/19 10:11:42;;;;;;;42.90;7.82;;;;;;;13.71;76.10;98971.47;5017889;28;20050;-75
2023/11/19 10:14:37;;;;;;;41.17;6.10;;;;;;;13.74;76.01;98971.22;5015902;28;20124;-77
2023/11/19 10:17:11;;;;;;;37.97;5.95;;;;;;;13.76;75.89;98974.56;4998711;28;20477;-77
2023/11/19 10:19:43;;;;;;;36.20;6.25;;;;;;;13.80;76.38;98977.81;5013600;28;20457;-77
2023/11/19 10:22:11;;;;;;;36.80;6.45;;;;;;;13.80;76.55;98961.94;5013932;28;20138;-76
2023/11/19 10:24:52;;;;;;;34.60;6.80;;;;;;;13.83;76.60;98961.66;4995054;28;20133;-77
2023/11/19 10:27:25;;;;;;;31.45;6.05;;;;;;;13.84;76.01;98981.03;4996177;28;20042;-77
2023/11/19 10:29:52;;;;;;;39.60;7.22;;;;;;;13.86;75.92;98973.81;5013532;28;20104;-76
2023/11/19 10:32:22;;;;;;;44.45;7.22;;;;;;;13.85;75.65;98978.25;5013464;28;20449;-77
2023/11/19 10:35:12;;;;;;;30.73;6.63;;;;;;;13.78;74.20;98964.69;4997040;28;20054;-77
2023/11/19 10:37:39;;;;;;;35.03;6.78;;;;;;;13.80;75.72;98968.03;4996464;28;20084;-76
2023/11/19 10:40:06;;;;;;;33.70;6.20;;;;;;;13.79;75.77;98960.22;5013907;28;20140;-75
2023/11/19 10:42:32;;;;;;;31.60;6.45;;;;;;;13.77;76.06;98963.03;5013804;28;20093;-73
2023/11/19 10:44:59;;;;;;;30.65;5.50;;;;;;;13.75;76.32;98962.31;5013538;28;20551;-78
2023/11/19 10:47:30;;;;;;;34.85;6.03;;;;;;;13.72;75.00;98964.38;5013422;28;20054;-76
2023/11/19 10:50:00;;;;;;;42.83;7.28;;;;;;;13.74;76.20;98962.44;5012404;28;20499;-74
2023/11/19 10:52:27;;;;;;;33.10;6.53;;;;;;;13.71;76.27;98968.00;5014024;28;20057;-75
2023/11/19 11:00:23;;;;;;;42.63;6.72;;;;;;;13.72;75.81;98961.72;4895643;23;19921;-76
2023/11/19 11:02:55;;;;;;;32.90;6.70;;;;;;;13.67;74.64;98965.59;4995604;28;20092;-74
2023/11/19 11:05:22;;;;;;;41.20;5.90;;;;;;;13.66;76.28;98971.84;5012972;28;20052;-73
2023/11/19 11:07:52;;;;;;;35.15;7.32;;;;;;;13.64;76.12;98960.56;5012274;28;20097;-75
2023/11/19 11:10:22;;;;;;;38.08;5.63;;;;;;;13.62;76.49;98959.00;5012145;28;20089;-72
2023/11/19 11:12:53;;;;;;;40.70;6.90;;;;;;;13.61;76.40;98957.34;5011613;28;20045;-75
2023/11/19 11:15:20;;;;;;;36.33;5.88;;;;;;;13.59;76.30;98961.88;5011903;28;20494;-74
2023/11/19 11:17:48;;;;;;;35.85;5.57;;;;;;;13.56;76.19;98965.63;4994379;28;20069;-71
2023/11/19 11:20:14;;;;;;;38.85;7.68;;;;;;;13.52;76.48;98954.47;5011996;28;20446;-72
2023/11/19 11:22:55;;;;;;;35.78;6.32;;;;;;;13.45;75.88;98952.44;4995107;28;20092;-72
2023/11/19 11:25:43;;;;;;;37.10;6.72;;;;;;;13.45;76.62;98944.50;5011367;28;20518;-72
2023/11/19 11:28:37;;;;;;;36.33;7.07;;;;;;;13.49;77.20;98938.03;5011076;28;20089;-74
2023/11/19 11:31:04;;;;;;;;;;;;;;;13.53;75.56;98935.00;4954995;28;20530;-74
2023/11/19 11:33:36;;;;;;;39.70;6.60;;;;;;;13.60;76.60;98942.44;5011478;28;19976;-74
2023/11/19 11:36:13;;;;;;;36.85;6.25;;;;;;;13.64;77.24;98934.09;5011240;28;20046;-74
2023/11/19 11:38:41;;;;;;;40.63;7.03;;;;;;;13.70;77.69;98939.84;5010931;28;20116;-73
2023/11/19 11:41:25;;;;;;;41.10;6.95;;;;;;;13.67;74.67;98931.22;5011835;28;20053;-72
2023/11/19 11:43:55;;;;;;;32.05;5.95;;;;;;;13.76;77.15;98939.34;5012163;28;20053;-72
2023/11/19 11:46:31;;;;;;;31.40;7.25;;;;;;;13.74;75.85;98936.84;5012194;28;20054;-74